createdAt,value
2023-01-22T00:00:33.872Z,45.67
2023-01-22T00:03:00.443Z,45.50
2023-01-22T00:05:26.869Z,45.25
2023-01-22T00:07:53.371Z,45.44
2023-01-22T00:10:20.051Z,45.31
2023-01-22T00:12:46.746Z,45.55
2023-01-22T00:15:13.109Z,45.59
2023-01-22T00:17:39.459Z,45.37
2023-01-22T00:20:06.911Z,45.30
2023-01-22T00:22:33.374Z,45.56
2023-01-22T00:24:59.733Z,45.41
2023-01-22T00:27:26.107Z,45.22
2023-01-22T00:29:52.509Z,45.39
2023-01-22T00:32:19.083Z,44.96
2023-01-22T00:34:52.089Z,45.39
2023-01-22T00:37:18.756Z,45.25
2023-01-22T00:39:45.108Z,45.33
2023-01-22T00:42:11.559Z,45.03
2023-01-22T00:44:38.008Z,45.29
2023-01-22T00:47:04.456Z,45.18
2023-01-22T00:49:30.868Z,45.19
2023-01-22T00:51:57.235Z,45.57
2023-01-22T00:54:23.645Z,45.19
2023-01-22T00:56:50.011Z,45.34
2023-01-22T00:59:16.528Z,45.15
2023-01-22T01:01:43.111Z,45.06
2023-01-22T01:04:09.637Z,45.21
2023-01-22T01:06:36.057Z,45.13
2023-01-22T01:09:02.553Z,45.09
2023-01-22T01:11:29.693Z,45.19
2023-01-22T01:13:56.152Z,44.97
2023-01-22T01:16:29.603Z,45.02
2023-01-22T01:18:58.529Z,44.93
2023-01-22T01:21:25.013Z,45.05
2023-01-22T01:23:51.537Z,45.14
2023-01-22T01:26:17.954Z,45.03
2023-01-22T01:28:45.372Z,45.01
2023-01-22T01:31:14.873Z,45.06
2023-01-22T01:33:41.632Z,45.04
2023-01-22T01:36:12.601Z,45.03
2023-01-22T01:38:39.031Z,44.89
2023-01-22T01:41:06.196Z,45.09
2023-01-22T01:43:32.760Z,45.18
2023-01-22T01:46:00.411Z,45.05
2023-01-22T01:48:26.874Z,45.04
2023-01-22T01:51:03.783Z,44.96
2023-01-22T01:53:30.449Z,45.05
2023-01-22T01:55:57.608Z,44.91
2023-01-22T01:58:25.737Z,44.97
2023-01-22T02:00:56.062Z,45.13
2023-01-22T02:03:22.577Z,45.09
2023-01-22T02:05:48.988Z,44.99
2023-01-22T02:08:15.479Z,45.16
2023-01-22T02:10:42.300Z,45.10
2023-01-22T02:13:12.573Z,45.06
2023-01-22T02:15:39.661Z,45.13
2023-01-22T02:18:06.235Z,45.23
2023-01-22T02:20:40.059Z,45.12
2023-01-22T02:23:06.672Z,45.07
2023-01-22T02:25:36.117Z,45.13
2023-01-22T02:28:02.530Z,45.34
2023-01-22T02:30:28.919Z,45.16
2023-01-22T02:32:55.371Z,45.08
2023-01-22T02:35:21.852Z,45.08
2023-01-22T02:37:48.337Z,45.07
2023-01-22T02:40:14.842Z,45.13
2023-01-22T02:42:41.874Z,45.22
2023-01-22T02:45:08.833Z,45.10
2023-01-22T02:47:36.238Z,45.08
2023-01-22T02:50:02.911Z,45.01
2023-01-22T02:52:29.670Z,45.14
2023-01-22T02:54:56.412Z,45.11
2023-01-22T02:57:22.825Z,45.03
2023-01-22T02:59:49.308Z,45.15
2023-01-22T03:02:15.755Z,45.15
2023-01-22T03:04:42.169Z,44.67
2023-01-22T03:07:08.608Z,44.82
2023-01-22T03:09:34.997Z,45.03
2023-01-22T03:12:01.407Z,45.14
2023-01-22T03:14:46.283Z,44.93
2023-01-22T03:17:31.070Z,45.03
2023-01-22T03:20:16.125Z,45.17
2023-01-22T03:22:42.680Z,45.14
2023-01-22T03:25:09.283Z,44.96
2023-01-22T03:27:35.711Z,45.02
2023-01-22T03:30:02.124Z,44.92
2023-01-22T03:32:28.573Z,44.90
2023-01-22T03:34:54.931Z,45.08
2023-01-22T03:37:21.391Z,45.05
2023-01-22T03:39:48.059Z,45.06
2023-01-22T03:42:14.464Z,45.23
2023-01-22T03:44:40.835Z,44.70
2023-01-22T03:47:07.186Z,45.12
2023-01-22T03:49:33.568Z,44.90
2023-01-22T03:51:59.915Z,44.79
2023-01-22T03:54:26.380Z,44.98
2023-01-22T03:56:52.773Z,44.79
2023-01-22T03:59:19.161Z,45.03
2023-01-22T04:01:45.597Z,44.89
2023-01-22T04:04:11.965Z,44.78
2023-01-22T04:06:38.385Z,44.95
2023-01-22T04:09:04.762Z,44.96
2023-01-22T04:11:31.250Z,44.84
2023-01-22T04:13:57.685Z,44.80
2023-01-22T04:16:24.273Z,44.96
2023-01-22T04:18:50.703Z,44.87
2023-01-22T04:21:17.123Z,44.70
2023-01-22T04:23:43.491Z,44.81
2023-01-22T04:26:09.920Z,44.90
2023-01-22T04:28:36.339Z,45.07
2023-01-22T04:31:04.590Z,44.48
2023-01-22T04:33:31.419Z,44.85
2023-01-22T04:35:58.202Z,44.83
2023-01-22T04:38:24.717Z,44.71
2023-01-22T04:40:51.186Z,44.61
2023-01-22T04:43:17.670Z,44.86
2023-01-22T04:45:44.063Z,44.81
2023-01-22T04:48:11.150Z,44.89
2023-01-22T04:50:37.614Z,44.79
2023-01-22T04:53:04.951Z,44.89
2023-01-22T04:55:31.316Z,44.76
2023-01-22T04:57:58.916Z,44.68
2023-01-22T05:00:26.117Z,44.66
2023-01-22T05:02:56.493Z,44.65
2023-01-22T05:05:22.969Z,44.68
2023-01-22T05:07:49.372Z,44.74
2023-01-22T05:10:16.291Z,44.74
2023-01-22T05:12:42.844Z,44.72
2023-01-22T05:15:23.072Z,44.65
2023-01-22T05:17:50.243Z,44.79
2023-01-22T05:20:17.233Z,44.75
2023-01-22T05:22:44.337Z,44.66
2023-01-22T05:25:10.710Z,45.03
2023-01-22T05:27:37.101Z,44.27
2023-01-22T05:30:05.360Z,44.58
2023-01-22T05:32:31.759Z,44.77
2023-01-22T05:34:58.118Z,44.79
2023-01-22T05:37:24.483Z,45.04
2023-01-22T05:39:50.905Z,44.73
2023-01-22T05:42:17.329Z,44.65
2023-01-22T05:44:43.808Z,44.82
2023-01-22T05:47:12.481Z,44.61
2023-01-22T05:49:38.979Z,44.69
2023-01-22T05:52:05.393Z,44.74
2023-01-22T05:54:31.800Z,44.75
2023-01-22T05:56:58.255Z,44.50
2023-01-22T05:59:24.673Z,44.64
2023-01-22T06:01:51.092Z,44.35
2023-01-22T06:04:17.464Z,44.45
2023-01-22T06:06:43.887Z,44.58
2023-01-22T06:09:12.889Z,44.50
2023-01-22T06:11:39.436Z,44.25
2023-01-22T06:14:06.206Z,44.56
2023-01-22T06:16:32.579Z,44.54
2023-01-22T06:18:58.947Z,44.42
2023-01-22T06:21:25.411Z,44.55
2023-01-22T06:23:51.852Z,44.66
2023-01-22T06:26:18.260Z,44.52
2023-01-22T06:28:44.744Z,44.68
2023-01-22T06:31:11.287Z,44.56
2023-01-22T06:33:38.301Z,44.46
2023-01-22T06:36:05.367Z,44.53
2023-01-22T06:38:31.913Z,44.45
2023-01-22T06:41:00.021Z,44.48
2023-01-22T06:43:27.312Z,44.38
2023-01-22T06:45:54.525Z,44.46
2023-01-22T06:48:20.898Z,44.22
2023-01-22T06:50:47.349Z,44.41
2023-01-22T06:53:14.151Z,44.27
2023-01-22T06:55:40.562Z,44.34
2023-01-22T06:58:07.012Z,44.34
2023-01-22T07:00:33.439Z,44.38
2023-01-22T07:02:59.954Z,44.35
2023-01-22T07:05:27.327Z,44.58
2023-01-22T07:07:55.075Z,44.24
2023-01-22T07:10:22.032Z,44.22
2023-01-22T07:12:49.751Z,44.28
2023-01-22T07:15:16.352Z,44.29
2023-01-22T07:17:42.743Z,43.89
2023-01-22T07:20:09.922Z,44.11
2023-01-22T07:22:36.358Z,44.08
2023-01-22T07:25:03.101Z,44.12
2023-01-22T07:27:32.418Z,44.13
2023-01-22T07:29:58.810Z,44.03
2023-01-22T07:32:25.195Z,44.11
2023-01-22T07:34:51.765Z,44.00
2023-01-22T07:37:18.220Z,43.93
2023-01-22T07:39:44.610Z,43.92
2023-01-22T07:42:12.433Z,43.85
2023-01-22T07:44:40.478Z,43.86
2023-01-22T07:47:06.918Z,43.89
2023-01-22T07:49:33.368Z,43.87
2023-01-22T07:51:59.868Z,44.01
2023-01-22T07:54:26.311Z,43.85
2023-01-22T07:56:52.686Z,43.91
2023-01-22T07:59:19.063Z,43.83
2023-01-22T08:01:45.504Z,43.77
2023-01-22T08:04:11.912Z,43.77
2023-01-22T08:06:38.301Z,43.87
2023-01-22T08:09:05.970Z,43.80
2023-01-22T08:11:32.394Z,43.98
2023-01-22T08:13:58.793Z,43.79
2023-01-22T08:16:25.263Z,43.82
2023-01-22T08:18:51.649Z,43.65
2023-01-22T08:21:18.080Z,43.61
2023-01-22T08:23:48.149Z,43.71
2023-01-22T08:26:15.526Z,43.77
2023-01-22T08:28:41.971Z,43.54
2023-01-22T08:31:16.364Z,43.64
2023-01-22T08:33:49.264Z,43.74
2023-01-22T08:36:15.742Z,43.52
2023-01-22T08:38:42.167Z,43.34
2023-01-22T08:41:08.575Z,43.72
2023-01-22T08:43:34.989Z,43.55
2023-01-22T08:46:01.558Z,43.52
2023-01-22T08:48:27.920Z,43.42
2023-01-22T08:50:54.314Z,43.11
2023-01-22T08:53:20.753Z,43.34
2023-01-22T08:55:50.277Z,43.49
2023-01-22T08:58:16.707Z,43.68
2023-01-22T09:00:44.465Z,43.39
2023-01-22T09:03:10.861Z,43.66
2023-01-22T09:05:39.808Z,43.42
2023-01-22T09:08:06.929Z,43.49
2023-01-22T09:10:33.487Z,43.32
2023-01-22T09:13:00.546Z,43.29
2023-01-22T09:15:27.296Z,43.09
2023-01-22T09:17:53.696Z,43.38
2023-01-22T09:20:20.404Z,43.18
2023-01-22T09:22:48.245Z,43.34
2023-01-22T09:25:15.487Z,43.27
2023-01-22T09:27:41.932Z,43.21
2023-01-22T09:30:09.624Z,43.11
2023-01-22T09:32:36.440Z,43.10
2023-01-22T09:35:02.883Z,43.13
2023-01-22T09:37:29.304Z,43.20
2023-01-22T09:39:55.787Z,43.19
2023-01-22T09:42:26.324Z,43.22
2023-01-22T09:44:55.757Z,43.05
2023-01-22T09:47:28.994Z,43.15
2023-01-22T09:50:08.077Z,43.20
2023-01-22T09:52:37.291Z,43.17
2023-01-22T09:55:09.426Z,43.10
2023-01-22T09:57:35.820Z,43.12
2023-01-22T10:00:03.488Z,43.05
2023-01-22T10:02:42.833Z,43.07
2023-01-22T10:05:35.596Z,43.05
2023-01-22T10:08:47.221Z,43.10
2023-01-22T10:11:13.609Z,43.17
2023-01-22T10:13:40.672Z,43.11
2023-01-22T10:16:07.439Z,43.24
2023-01-22T10:18:42.152Z,43.07
2023-01-22T10:21:21.088Z,43.01
2023-01-22T10:23:50.024Z,43.18
2023-01-22T10:26:17.782Z,43.12
2023-01-22T10:28:45.902Z,43.31
2023-01-22T10:31:30.852Z,43.32
2023-01-22T10:34:01.830Z,43.07
2023-01-22T10:36:29.501Z,43.11
2023-01-22T10:39:13.330Z,43.22
2023-01-22T10:41:40.914Z,43.29
2023-01-22T10:44:09.415Z,43.19
2023-01-22T10:46:35.934Z,43.04
2023-01-22T10:49:05.527Z,43.05
2023-01-22T10:51:34.580Z,43.60
2023-01-22T10:54:01.067Z,43.18
2023-01-22T10:56:31.731Z,43.18
2023-01-22T10:59:01.908Z,43.15
2023-01-22T11:01:34.991Z,42.97
2023-01-22T11:04:21.523Z,43.18
2023-01-22T11:06:50.899Z,43.02
2023-01-22T11:09:25.181Z,42.94
2023-01-22T11:12:04.392Z,42.95
2023-01-22T11:14:35.489Z,43.17
2023-01-22T11:17:20.700Z,42.83
2023-01-22T11:20:17.944Z,42.68
2023-01-22T11:22:48.504Z,43.15
2023-01-22T11:25:15.067Z,43.16
2023-01-22T11:28:12.308Z,42.90
2023-01-22T11:30:53.498Z,43.03
2023-01-22T11:33:32.012Z,43.16
2023-01-22T11:36:19.686Z,43.09
2023-01-22T11:39:14.634Z,43.29
2023-01-22T11:41:59.476Z,43.11
2023-01-22T11:44:50.262Z,43.03
2023-01-22T11:47:27.530Z,43.28
2023-01-22T11:50:15.695Z,43.28
2023-01-22T11:52:53.227Z,43.01
2023-01-22T11:55:24.927Z,43.12
2023-01-22T11:58:17.486Z,43.26
2023-01-22T12:00:58.974Z,43.32
2023-01-22T12:03:34.491Z,43.09
2023-01-22T12:06:20.784Z,43.04
2023-01-22T12:08:56.117Z,43.37
2023-01-22T12:11:47.322Z,42.96
2023-01-22T12:14:32.091Z,43.01
2023-01-22T12:17:10.727Z,43.14
2023-01-22T12:20:14.163Z,43.17
2023-01-22T12:23:01.276Z,43.06
2023-01-22T12:25:39.396Z,43.39
2023-01-22T12:28:14.277Z,43.01
2023-01-22T12:30:46.862Z,43.08
2023-01-22T12:33:15.859Z,43.19
2023-01-22T12:35:42.478Z,42.98
2023-01-22T12:38:24.797Z,43.12
2023-01-22T12:41:11.242Z,43.10
2023-01-22T12:43:50.949Z,42.98
2023-01-22T12:46:45.050Z,43.23
2023-01-22T12:49:16.273Z,43.00
2023-01-22T12:51:48.351Z,43.08
2023-01-22T12:54:30.222Z,43.22
2023-01-22T12:57:20.620Z,43.27
2023-01-22T12:59:51.608Z,43.32
2023-01-22T13:02:22.727Z,43.04
2023-01-22T13:04:49.229Z,43.25
2023-01-22T13:07:36.079Z,42.97
2023-01-22T13:10:29.299Z,43.15
2023-01-22T13:12:58.970Z,43.17
2023-01-22T13:15:32.367Z,43.11
2023-01-22T13:18:27.773Z,43.18
2023-01-22T13:21:02.823Z,43.08
2023-01-22T13:23:34.584Z,43.15
2023-01-22T13:26:01.485Z,43.21
2023-01-22T13:28:28.187Z,43.25
2023-01-22T13:31:05.084Z,43.12
2023-01-22T13:33:31.973Z,43.07
2023-01-22T13:35:58.539Z,43.03
2023-01-22T13:38:30.851Z,43.01
2023-01-22T13:41:05.813Z,43.04
2023-01-22T13:43:33.907Z,43.08
2023-01-22T13:46:00.896Z,43.08
2023-01-22T13:48:27.469Z,42.93
2023-01-22T13:51:05.398Z,43.03
2023-01-22T13:53:41.893Z,43.15
2023-01-22T13:56:15.580Z,43.00
2023-01-22T13:58:48.209Z,42.94
2023-01-22T14:01:35.861Z,43.22
2023-01-22T14:04:07.331Z,43.06
2023-01-22T14:06:49.303Z,43.01
2023-01-22T14:09:25.140Z,43.65
2023-01-22T14:11:51.660Z,43.21
2023-01-22T14:14:19.571Z,43.09
2023-01-22T14:16:46.115Z,43.02
2023-01-22T14:19:12.971Z,43.24
2023-01-22T14:21:39.526Z,43.13
2023-01-22T14:24:06.416Z,43.14
2023-01-22T14:26:33.061Z,43.23
2023-01-22T14:28:59.495Z,43.06
2023-01-22T14:31:25.933Z,43.00
2023-01-22T14:33:52.453Z,43.24
2023-01-22T14:36:20.281Z,43.21
2023-01-22T14:38:48.560Z,43.07
2023-01-22T14:41:14.970Z,43.12
2023-01-22T14:43:41.343Z,43.28
2023-01-22T14:46:08.503Z,43.16
2023-01-22T14:48:34.965Z,43.19
2023-01-22T14:51:07.737Z,43.07
2023-01-22T14:53:34.895Z,43.10
2023-01-22T14:56:01.375Z,43.34
2023-01-22T14:58:27.924Z,43.23
2023-01-22T15:00:54.400Z,43.29
2023-01-22T15:03:20.835Z,43.06
2023-01-22T15:05:51.042Z,43.11
2023-01-22T15:08:17.472Z,43.18
2023-01-22T15:10:43.901Z,43.09
2023-01-22T15:13:10.352Z,43.12
2023-01-22T15:15:36.721Z,43.28
2023-01-22T15:18:03.144Z,43.26
2023-01-22T15:20:29.580Z,43.22
2023-01-22T15:22:55.956Z,43.25
2023-01-22T15:25:22.322Z,43.29
2023-01-22T15:27:48.736Z,43.05
2023-01-22T15:30:15.440Z,43.14
2023-01-22T15:32:41.875Z,43.16
2023-01-22T15:35:08.692Z,43.19
2023-01-22T15:37:35.063Z,43.34
2023-01-22T15:40:02.143Z,42.99
2023-01-22T15:42:28.625Z,43.59
2023-01-22T15:44:55.044Z,43.37
2023-01-22T15:47:21.465Z,43.27
2023-01-22T15:49:47.841Z,43.17
2023-01-22T15:52:14.207Z,42.89
2023-01-22T15:54:40.608Z,42.93
2023-01-22T15:57:06.976Z,43.21
2023-01-22T15:59:33.536Z,43.08
2023-01-22T16:01:59.939Z,43.10
2023-01-22T16:04:26.310Z,43.22
2023-01-22T16:06:52.860Z,43.19
2023-01-22T16:09:19.323Z,43.50
2023-01-22T16:11:45.700Z,42.95
2023-01-22T16:14:12.112Z,43.23
2023-01-22T16:16:38.581Z,43.21
2023-01-22T16:19:07.574Z,43.21
2023-01-22T16:21:34.155Z,43.26
2023-01-22T16:24:01.553Z,43.37
2023-01-22T16:26:30.524Z,43.15
2023-01-22T16:28:59.106Z,43.21
2023-01-22T16:31:31.834Z,43.50
2023-01-22T16:34:18.307Z,43.37
2023-01-22T16:36:45.097Z,43.40
2023-01-22T16:39:19.887Z,43.24
2023-01-22T16:41:48.598Z,43.50
2023-01-22T16:44:17.799Z,43.38
2023-01-22T16:46:49.469Z,43.48
2023-01-22T16:49:19.084Z,43.38
2023-01-22T16:51:47.425Z,43.85
2023-01-22T16:54:18.029Z,43.61
2023-01-22T16:56:44.442Z,43.48
2023-01-22T16:59:11.263Z,43.38
2023-01-22T17:01:40.864Z,43.62
2023-01-22T17:04:07.759Z,43.45
2023-01-22T17:06:40.400Z,43.54
2023-01-22T17:09:08.228Z,43.40
2023-01-22T17:11:34.607Z,43.54
2023-01-22T17:14:01.081Z,43.48
2023-01-22T17:16:27.602Z,43.58
2023-01-22T17:18:54.826Z,43.58
2023-01-22T17:21:21.546Z,43.47
2023-01-22T17:23:47.940Z,43.63
2023-01-22T17:26:16.308Z,43.58
2023-01-22T17:28:42.946Z,43.63
2023-01-22T17:31:17.739Z,43.62
2023-01-22T17:33:44.486Z,43.36
2023-01-22T17:36:13.248Z,43.51
2023-01-22T17:38:39.801Z,43.52
2023-01-22T17:41:15.703Z,43.53
2023-01-22T17:43:43.659Z,43.39
2023-01-22T17:46:15.457Z,43.46
2023-01-22T17:48:42.844Z,43.33
2023-01-22T17:51:15.627Z,43.57
2023-01-22T17:53:43.374Z,43.48
2023-01-22T17:56:22.217Z,43.50
2023-01-22T17:58:50.981Z,43.55
2023-01-22T18:01:19.394Z,43.43
2023-01-22T18:03:46.711Z,43.58
2023-01-22T18:06:13.809Z,43.50
2023-01-22T18:08:42.148Z,43.26
2023-01-22T18:11:10.802Z,43.45
2023-01-22T18:13:38.191Z,43.58
2023-01-22T18:16:06.034Z,43.43
2023-01-22T18:18:32.495Z,43.61
2023-01-22T18:20:59.123Z,43.61
2023-01-22T18:23:25.701Z,43.45
2023-01-22T18:25:56.174Z,43.67
2023-01-22T18:28:25.215Z,43.48
2023-01-22T18:30:52.410Z,43.57
2023-01-22T18:33:20.582Z,43.56
2023-01-22T18:35:49.289Z,43.67
2023-01-22T18:38:16.462Z,43.55
2023-01-22T18:40:42.816Z,43.71
2023-01-22T18:43:10.076Z,43.79
2023-01-22T18:45:36.953Z,43.63
2023-01-22T18:48:04.489Z,43.61
2023-01-22T18:50:30.937Z,43.52
2023-01-22T18:52:57.773Z,43.44
2023-01-22T18:55:24.358Z,43.36
2023-01-22T18:57:54.395Z,43.69
2023-01-22T19:00:20.915Z,43.66
2023-01-22T19:02:55.146Z,43.47
2023-01-22T19:05:22.630Z,43.53
2023-01-22T19:07:49.101Z,43.65
2023-01-22T19:10:16.620Z,43.60
2023-01-22T19:12:43.069Z,43.53
2023-01-22T19:15:10.368Z,43.51
2023-01-22T19:17:36.788Z,43.56
2023-01-22T19:20:07.522Z,43.75
2023-01-22T19:22:34.839Z,43.54
2023-01-22T19:25:02.769Z,43.59
2023-01-22T19:27:30.094Z,43.66
2023-01-22T19:29:56.603Z,43.66
2023-01-22T19:32:27.728Z,43.74
2023-01-22T19:34:54.967Z,43.63
2023-01-22T19:37:21.427Z,43.67
2023-01-22T19:39:47.892Z,43.65
2023-01-22T19:42:15.350Z,43.60
2023-01-22T19:44:42.873Z,43.58
2023-01-22T19:47:10.874Z,43.61
2023-01-22T19:49:37.428Z,43.78
2023-01-22T19:52:03.859Z,43.77
2023-01-22T19:54:30.306Z,43.84
2023-01-22T19:56:56.755Z,43.73
2023-01-22T19:59:23.929Z,43.70
2023-01-22T20:01:51.015Z,43.86
2023-01-22T20:04:26.842Z,43.89
2023-01-22T20:07:00.566Z,44.26
2023-01-22T20:09:27.072Z,44.08
2023-01-22T20:11:54.933Z,43.85
2023-01-22T20:14:22.553Z,43.99
2023-01-22T20:16:49.307Z,43.96
2023-01-22T20:19:16.140Z,43.96
2023-01-22T20:21:42.550Z,43.92
2023-01-22T20:24:09.340Z,43.96
2023-01-22T20:26:35.793Z,43.91
2023-01-22T20:29:02.263Z,43.81
2023-01-22T20:31:28.698Z,44.08
2023-01-22T20:33:56.898Z,43.92
2023-01-22T20:36:25.439Z,43.96
2023-01-22T20:38:53.094Z,44.06
2023-01-22T20:41:20.136Z,44.03
2023-01-22T20:43:46.644Z,44.00
2023-01-22T20:46:18.521Z,44.07
2023-01-22T20:48:45.463Z,43.92
2023-01-22T20:51:17.562Z,44.05
2023-01-22T20:53:45.047Z,44.06
2023-01-22T20:56:14.351Z,44.07
2023-01-22T20:58:41.553Z,44.11
2023-01-22T21:01:15.589Z,44.04
2023-01-22T21:03:43.358Z,43.89
2023-01-22T21:06:13.908Z,44.01
2023-01-22T21:08:41.375Z,44.00
2023-01-22T21:11:11.620Z,44.00
2023-01-22T21:13:38.132Z,44.14
2023-01-22T21:16:09.862Z,44.08
2023-01-22T21:18:37.544Z,44.16
2023-01-22T21:21:04.910Z,44.03
2023-01-22T21:23:31.379Z,44.11
2023-01-22T21:26:03.439Z,44.07
2023-01-22T21:28:29.881Z,44.07
2023-01-22T21:30:56.559Z,44.13
2023-01-22T21:33:23.069Z,44.18
2023-01-22T21:35:49.764Z,44.11
2023-01-22T21:38:16.248Z,44.02
2023-01-22T21:40:42.713Z,44.21
2023-01-22T21:43:31.780Z,44.09
2023-01-22T21:46:17.440Z,44.20
2023-01-22T21:48:43.857Z,44.18
2023-01-22T21:51:10.292Z,44.11
2023-01-22T21:53:36.696Z,43.99
2023-01-22T21:56:03.111Z,44.09
2023-01-22T21:58:29.554Z,44.17
2023-01-22T22:01:03.698Z,44.09
2023-01-22T22:03:32.679Z,44.29
2023-01-22T22:06:02.306Z,44.05
2023-01-22T22:08:29.179Z,44.24
2023-01-22T22:10:56.004Z,44.21
2023-01-22T22:13:22.458Z,44.37
2023-01-22T22:15:49.410Z,44.20
2023-01-22T22:18:15.813Z,44.73
2023-01-22T22:20:42.357Z,44.22
2023-01-22T22:23:08.881Z,44.19
2023-01-22T22:25:35.590Z,44.22
2023-01-22T22:28:01.984Z,43.99
2023-01-22T22:30:28.419Z,44.26
2023-01-22T22:32:54.861Z,44.15
2023-01-22T22:35:21.839Z,44.29
2023-01-22T22:37:48.355Z,44.19
2023-01-22T22:40:14.849Z,44.24
2023-01-22T22:42:41.276Z,44.18
2023-01-22T22:45:08.984Z,44.20
2023-01-22T22:47:36.271Z,44.16
2023-01-22T22:50:04.612Z,44.26
2023-01-22T22:52:33.477Z,44.16
2023-01-22T22:54:59.910Z,44.29
2023-01-22T22:57:26.316Z,44.41
2023-01-22T22:59:52.785Z,44.24
2023-01-22T23:02:20.955Z,44.17
2023-01-22T23:04:47.484Z,44.21
2023-01-22T23:07:13.989Z,44.52
2023-01-22T23:09:40.433Z,44.25
2023-01-22T23:12:07.347Z,44.34
2023-01-22T23:14:33.808Z,44.47
2023-01-22T23:17:00.371Z,44.34
2023-01-22T23:19:26.940Z,44.44
2023-01-22T23:21:58.330Z,44.46
2023-01-22T23:24:25.177Z,44.51
2023-01-22T23:26:52.091Z,44.67
2023-01-22T23:29:20.974Z,44.62
2023-01-22T23:31:48.074Z,44.70
2023-01-22T23:34:17.500Z,44.59
2023-01-22T23:36:45.331Z,44.67
2023-01-22T23:39:17.558Z,44.85
2023-01-22T23:41:44.421Z,44.79
2023-01-22T23:44:11.639Z,44.62
2023-01-22T23:46:38.723Z,44.76
2023-01-22T23:49:05.509Z,44.77
2023-01-22T23:51:32.024Z,44.63
2023-01-22T23:53:58.619Z,44.79
2023-01-22T23:56:26.716Z,44.58
2023-01-22T23:58:54.696Z,44.63
